sensor_id;sensor_type;location;lat;lon;timestamp;P1;durP1;ratioP1;P2;durP2;ratioP2
60002;SDS011;46322;52.018;8.702;2022-08-01T00:03:17;17.05;;;7.68;;
60002;SDS011;46322;52.018;8.702;2022-08-01T00:08:17;17.23;;;8.85;;
60002;SDS011;46322;52.018;8.702;2022-08-01T00:13:18;16.98;;;8.93;;
60002;SDS011;46322;52.018;8.702;2022-08-01T00:18:18;16.33;;;7.93;;
60002;SDS011;46322;52.018;8.702;2022-08-01T00:23:18;17.30;;;7.65;;
60002;SDS011;46322;52.018;8.702;2022-08-01T00:28:18;15.57;;;8.05;;
60002;SDS011;46322;52.018;8.702;2022-08-01T00:33:19;14.03;;;7.43;;
60002;SDS011;46322;52.018;8.702;2022-08-01T00:38:19;15.00;;;7.63;;
60002;SDS011;46322;52.018;8.702;2022-08-01T00:43:19;11.77;;;6.47;;
60002;SDS011;46322;52.018;8.702;2022-08-01T00:48:19;13.73;;;7.18;;
60002;SDS011;46322;52.018;8.702;2022-08-01T00:53:20;14.18;;;7.22;;
60002;SDS011;46322;52.018;8.702;2022-08-01T00:58:20;13.00;;;7.53;;
60002;SDS011;46322;52.018;8.702;2022-08-01T01:03:21;15.30;;;7.80;;
60002;SDS011;46322;52.018;8.702;2022-08-01T01:08:24;14.30;;;7.38;;
60002;SDS011;46322;52.018;8.702;2022-08-01T01:13:38;15.43;;;8.37;;
60002;SDS011;46322;52.018;8.702;2022-08-01T01:18:47;16.47;;;8.40;;
60002;SDS011;46322;52.018;8.702;2022-08-01T01:34:17;20.80;;;9.83;;
60002;SDS011;46322;52.018;8.702;2022-08-01T01:39:30;17.95;;;9.73;;
60002;SDS011;46322;52.018;8.702;2022-08-01T01:44:32;20.25;;;9.57;;
60002;SDS011;46322;52.018;8.702;2022-08-01T01:49:38;18.70;;;9.80;;
60002;SDS011;46322;52.018;8.702;2022-08-01T01:54:42;17.27;;;8.43;;
60002;SDS011;46322;52.018;8.702;2022-08-01T01:59:47;18.55;;;9.20;;
60002;SDS011;46322;52.018;8.702;2022-08-01T02:04:50;14.37;;;8.30;;
60002;SDS011;46322;52.018;8.702;2022-08-01T02:10:11;15.57;;;7.70;;
60002;SDS011;46322;52.018;8.702;2022-08-01T02:15:12;13.82;;;7.30;;
60002;SDS011;46322;52.018;8.702;2022-08-01T02:20:14;14.20;;;6.32;;
60002;SDS011;46322;52.018;8.702;2022-08-01T02:30:25;12.10;;;6.47;;
60002;SDS011;46322;52.018;8.702;2022-08-01T02:35:30;12.40;;;6.00;;
60002;SDS011;46322;52.018;8.702;2022-08-01T02:40:33;10.98;;;5.47;;
60002;SDS011;46322;52.018;8.702;2022-08-01T02:45:37;11.05;;;5.10;;
60002;SDS011;46322;52.018;8.702;2022-08-01T02:50:43;8.10;;;4.13;;
60002;SDS011;46322;52.018;8.702;2022-08-01T02:55:45;11.07;;;4.90;;
60002;SDS011;46322;52.018;8.702;2022-08-01T03:00:47;9.38;;;4.70;;
60002;SDS011;46322;52.018;8.702;2022-08-01T03:05:47;9.00;;;4.07;;
60002;SDS011;46322;52.018;8.702;2022-08-01T03:10:48;8.27;;;4.05;;
60002;SDS011;46322;52.018;8.702;2022-08-01T03:15:50;8.23;;;4.40;;
60002;SDS011;46322;52.018;8.702;2022-08-01T03:20:54;7.63;;;4.47;;
60002;SDS011;46322;52.018;8.702;2022-08-01T03:25:57;8.90;;;4.00;;
60002;SDS011;46322;52.018;8.702;2022-08-01T03:30:59;8.87;;;4.30;;
60002;SDS011;46322;52.018;8.702;2022-08-01T03:36:01;10.60;;;4.63;;
60002;SDS011;46322;52.018;8.702;2022-08-01T03:41:06;7.68;;;4.43;;
60002;SDS011;46322;52.018;8.702;2022-08-01T03:46:13;8.45;;;4.30;;
60002;SDS011;46322;52.018;8.702;2022-08-01T03:51:19;10.63;;;4.70;;
60002;SDS011;46322;52.018;8.702;2022-08-01T03:56:22;9.70;;;4.95;;
60002;SDS011;46322;52.018;8.702;2022-08-01T04:01:23;9.05;;;4.60;;
60002;SDS011;46322;52.018;8.702;2022-08-01T04:06:24;11.97;;;5.13;;
60002;SDS011;46322;52.018;8.702;2022-08-01T04:11:25;7.57;;;4.63;;
60002;SDS011;46322;52.018;8.702;2022-08-01T04:16:25;9.55;;;4.45;;
60002;SDS011;46322;52.018;8.702;2022-08-01T04:21:26;9.98;;;4.90;;
60002;SDS011;46322;52.018;8.702;2022-08-01T04:26:31;8.20;;;4.53;;
60002;SDS011;46322;52.018;8.702;2022-08-01T04:31:33;8.93;;;4.93;;
60002;SDS011;46322;52.018;8.702;2022-08-01T04:36:35;10.50;;;4.95;;
60002;SDS011;46322;52.018;8.702;2022-08-01T04:41:36;8.40;;;4.70;;
60002;SDS011;46322;52.018;8.702;2022-08-01T04:46:39;9.57;;;5.15;;
60002;SDS011;46322;52.018;8.702;2022-08-01T04:51:50;8.25;;;4.72;;
60002;SDS011;46322;52.018;8.702;2022-08-01T04:56:56;10.17;;;5.07;;
60002;SDS011;46322;52.018;8.702;2022-08-01T05:01:56;9.05;;;5.60;;
60002;SDS011;46322;52.018;8.702;2022-08-01T05:06:56;9.05;;;5.20;;
60002;SDS011;46322;52.018;8.702;2022-08-01T05:11:58;11.20;;;5.82;;
60002;SDS011;46322;52.018;8.702;2022-08-01T05:17:01;9.57;;;5.67;;
60002;SDS011;46322;52.018;8.702;2022-08-01T05:22:03;10.85;;;6.40;;
60002;SDS011;46322;52.018;8.702;2022-08-01T05:27:06;10.00;;;5.93;;
60002;SDS011;46322;52.018;8.702;2022-08-01T05:32:06;10.07;;;6.43;;
60002;SDS011;46322;52.018;8.702;2022-08-01T05:37:09;11.90;;;6.60;;
60002;SDS011;46322;52.018;8.702;2022-08-01T05:42:10;10.20;;;6.37;;
60002;SDS011;46322;52.018;8.702;2022-08-01T05:47:10;10.60;;;6.17;;
60002;SDS011;46322;52.018;8.702;2022-08-01T05:52:10;9.23;;;5.38;;
60002;SDS011;46322;52.018;8.702;2022-08-01T05:57:11;8.00;;;5.10;;
60002;SDS011;46322;52.018;8.702;2022-08-01T06:02:11;9.30;;;4.82;;
60002;SDS011;46322;52.018;8.702;2022-08-01T06:07:12;8.43;;;4.97;;
60002;SDS011;46322;52.018;8.702;2022-08-01T06:12:12;9.75;;;4.78;;
60002;SDS011;46322;52.018;8.702;2022-08-01T06:17:12;8.55;;;4.50;;
60002;SDS011;46322;52.018;8.702;2022-08-01T06:22:13;8.17;;;4.90;;
60002;SDS011;46322;52.018;8.702;2022-08-01T06:27:14;9.30;;;4.55;;
60002;SDS011;46322;52.018;8.702;2022-08-01T06:32:14;7.95;;;4.50;;
60002;SDS011;46322;52.018;8.702;2022-08-01T06:37:15;7.97;;;4.78;;
60002;SDS011;46322;52.018;8.702;2022-08-01T06:42:15;7.57;;;3.95;;
60002;SDS011;46322;52.018;8.702;2022-08-01T06:47:15;7.47;;;3.92;;
60002;SDS011;46322;52.018;8.702;2022-08-01T06:52:15;5.70;;;3.78;;
60002;SDS011;46322;52.018;8.702;2022-08-01T06:57:16;5.88;;;3.65;;
60002;SDS011;46322;52.018;8.702;2022-08-01T07:02:16;5.20;;;3.10;;
60002;SDS011;46322;52.018;8.702;2022-08-01T07:07:17;6.57;;;3.90;;
60002;SDS011;46322;52.018;8.702;2022-08-01T07:12:17;6.22;;;2.58;;
60002;SDS011;46322;52.018;8.702;2022-08-01T07:17:17;6.13;;;2.10;;
60002;SDS011;46322;52.018;8.702;2022-08-01T07:22:17;5.80;;;2.40;;
60002;SDS011;46322;52.018;8.702;2022-08-01T07:27:18;4.07;;;1.90;;
60002;SDS011;46322;52.018;8.702;2022-08-01T07:32:18;3.35;;;1.92;;
60002;SDS011;46322;52.018;8.702;2022-08-01T07:37:18;4.17;;;2.00;;
60002;SDS011;46322;52.018;8.702;2022-08-01T07:42:18;3.80;;;2.10;;
60002;SDS011;46322;52.018;8.702;2022-08-01T07:47:23;3.83;;;2.10;;
60002;SDS011;46322;52.018;8.702;2022-08-01T07:52:24;4.65;;;2.05;;
60002;SDS011;46322;52.018;8.702;2022-08-01T07:57:24;10.88;;;1.92;;
60002;SDS011;46322;52.018;8.702;2022-08-01T08:02:25;3.30;;;1.80;;
60002;SDS011;46322;52.018;8.702;2022-08-01T08:07:25;4.97;;;2.00;;
60002;SDS011;46322;52.018;8.702;2022-08-01T08:12:25;3.65;;;1.90;;
60002;SDS011;46322;52.018;8.702;2022-08-01T08:17:29;4.63;;;1.90;;
60002;SDS011;46322;52.018;8.702;2022-08-01T08:22:29;3.25;;;1.73;;
60002;SDS011;46322;52.018;8.702;2022-08-01T08:27:30;4.50;;;1.80;;
60002;SDS011;46322;52.018;8.702;2022-08-01T08:32:30;3.87;;;1.80;;
60002;SDS011;46322;52.018;8.702;2022-08-01T08:37:30;4.45;;;1.80;;
60002;SDS011;46322;52.018;8.702;2022-08-01T08:42:31;3.73;;;1.90;;
60002;SDS011;46322;52.018;8.702;2022-08-01T08:47:31;3.40;;;1.80;;
60002;SDS011;46322;52.018;8.702;2022-08-01T08:52:33;3.47;;;1.80;;
60002;SDS011;46322;52.018;8.702;2022-08-01T09:03:12;2.80;;;1.50;;
60002;SDS011;46322;52.018;8.702;2022-08-01T09:08:12;4.22;;;1.80;;
60002;SDS011;46322;52.018;8.702;2022-08-01T09:13:13;3.80;;;1.80;;
60002;SDS011;46322;52.018;8.702;2022-08-01T09:28:37;3.60;;;1.60;;
60002;SDS011;46322;52.018;8.702;2022-08-01T09:39:11;3.28;;;1.67;;
60002;SDS011;46322;52.018;8.702;2022-08-01T09:44:13;3.72;;;1.55;;
60002;SDS011;46322;52.018;8.702;2022-08-01T09:49:30;2.67;;;1.23;;
60002;SDS011;46322;52.018;8.702;2022-08-01T09:54:32;2.90;;;1.60;;
60002;SDS011;46322;52.018;8.702;2022-08-01T09:59:39;2.63;;;1.35;;
60002;SDS011;46322;52.018;8.702;2022-08-01T10:04:48;2.60;;;1.20;;
60002;SDS011;46322;52.018;8.702;2022-08-01T10:09:49;3.85;;;1.27;;
60002;SDS011;46322;52.018;8.702;2022-08-01T10:14:49;2.93;;;1.60;;
60002;SDS011;46322;52.018;8.702;2022-08-01T10:19:54;3.10;;;1.40;;
60002;SDS011;46322;52.018;8.702;2022-08-01T10:24:55;2.97;;;1.30;;
60002;SDS011;46322;52.018;8.702;2022-08-01T10:30:00;3.23;;;1.33;;
60002;SDS011;46322;52.018;8.702;2022-08-01T10:35:03;3.13;;;1.38;;
60002;SDS011;46322;52.018;8.702;2022-08-01T10:40:04;2.55;;;1.17;;
60002;SDS011;46322;52.018;8.702;2022-08-01T10:45:07;2.53;;;1.30;;
60002;SDS011;46322;52.018;8.702;2022-08-01T10:50:13;2.70;;;1.20;;
60002;SDS011;46322;52.018;8.702;2022-08-01T10:55:17;2.53;;;1.50;;
60002;SDS011;46322;52.018;8.702;2022-08-01T11:00:19;4.30;;;1.50;;
60002;SDS011;46322;52.018;8.702;2022-08-01T11:05:20;3.17;;;1.58;;
60002;SDS011;46322;52.018;8.702;2022-08-01T11:10:25;3.08;;;1.60;;
60002;SDS011;46322;52.018;8.702;2022-08-01T11:15:38;3.23;;;1.63;;
60002;SDS011;46322;52.018;8.702;2022-08-01T11:20:38;3.15;;;2.00;;
60002;SDS011;46322;52.018;8.702;2022-08-01T11:46:17;3.67;;;2.00;;
60002;SDS011;46322;52.018;8.702;2022-08-01T11:51:18;3.67;;;2.30;;
60002;SDS011;46322;52.018;8.702;2022-08-01T11:56:18;5.15;;;2.80;;
60002;SDS011;46322;52.018;8.702;2022-08-01T12:01:19;4.57;;;2.93;;
60002;SDS011;46322;52.018;8.702;2022-08-01T12:06:29;5.63;;;3.33;;
60002;SDS011;46322;52.018;8.702;2022-08-01T12:11:29;6.97;;;3.65;;
60002;SDS011;46322;52.018;8.702;2022-08-01T12:16:30;6.07;;;3.53;;
60002;SDS011;46322;52.018;8.702;2022-08-01T12:21:30;5.53;;;3.47;;
60002;SDS011;46322;52.018;8.702;2022-08-01T12:26:43;6.00;;;3.53;;
60002;SDS011;46322;52.018;8.702;2022-08-01T12:31:43;6.57;;;4.35;;
60002;SDS011;46322;52.018;8.702;2022-08-01T12:36:43;6.10;;;4.40;;
60002;SDS011;46322;52.018;8.702;2022-08-01T12:41:44;7.10;;;4.80;;
60002;SDS011;46322;52.018;8.702;2022-08-01T12:46:45;7.65;;;4.50;;
60002;SDS011;46322;52.018;8.702;2022-08-01T12:51:45;6.87;;;4.37;;
60002;SDS011;46322;52.018;8.702;2022-08-01T12:56:47;6.17;;;4.00;;
60002;SDS011;46322;52.018;8.702;2022-08-01T13:01:47;6.73;;;4.77;;
60002;SDS011;46322;52.018;8.702;2022-08-01T13:06:53;6.90;;;5.00;;
60002;SDS011;46322;52.018;8.702;2022-08-01T13:11:54;7.40;;;4.97;;
60002;SDS011;46322;52.018;8.702;2022-08-01T13:16:59;9.27;;;5.28;;
60002;SDS011;46322;52.018;8.702;2022-08-01T13:21:59;7.32;;;5.35;;
60002;SDS011;46322;52.018;8.702;2022-08-01T13:27:00;7.77;;;5.10;;
60002;SDS011;46322;52.018;8.702;2022-08-01T13:32:11;6.90;;;4.90;;
60002;SDS011;46322;52.018;8.702;2022-08-01T13:37:13;6.28;;;4.55;;
60002;SDS011;46322;52.018;8.702;2022-08-01T13:42:14;5.95;;;4.47;;
60002;SDS011;46322;52.018;8.702;2022-08-01T13:47:15;7.03;;;4.40;;
60002;SDS011;46322;52.018;8.702;2022-08-01T13:52:16;8.05;;;4.65;;
60002;SDS011;46322;52.018;8.702;2022-08-01T13:57:16;6.28;;;4.00;;
60002;SDS011;46322;52.018;8.702;2022-08-01T14:02:16;6.83;;;4.10;;
60002;SDS011;46322;52.018;8.702;2022-08-01T14:07:17;5.15;;;4.00;;
60002;SDS011;46322;52.018;8.702;2022-08-01T14:12:17;4.97;;;3.63;;
60002;SDS011;46322;52.018;8.702;2022-08-01T14:17:17;6.78;;;3.97;;
60002;SDS011;46322;52.018;8.702;2022-08-01T14:22:17;6.37;;;3.80;;
60002;SDS011;46322;52.018;8.702;2022-08-01T14:27:18;7.07;;;3.72;;
60002;SDS011;46322;52.018;8.702;2022-08-01T14:32:18;5.10;;;3.60;;
60002;SDS011;46322;52.018;8.702;2022-08-01T14:37:19;5.90;;;3.47;;
60002;SDS011;46322;52.018;8.702;2022-08-01T14:42:19;5.35;;;3.22;;
60002;SDS011;46322;52.018;8.702;2022-08-01T14:47:20;5.03;;;3.20;;
60002;SDS011;46322;52.018;8.702;2022-08-01T14:52:20;6.75;;;3.30;;
60002;SDS011;46322;52.018;8.702;2022-08-01T14:57:20;3.50;;;2.50;;
60002;SDS011;46322;52.018;8.702;2022-08-01T15:02:20;3.90;;;2.80;;
60002;SDS011;46322;52.018;8.702;2022-08-01T15:07:21;4.50;;;3.03;;
60002;SDS011;46322;52.018;8.702;2022-08-01T15:12:21;4.77;;;3.40;;
60002;SDS011;46322;52.018;8.702;2022-08-01T15:17:23;5.83;;;3.67;;
60002;SDS011;46322;52.018;8.702;2022-08-01T15:22:26;4.72;;;3.78;;
60002;SDS011;46322;52.018;8.702;2022-08-01T15:27:28;5.68;;;4.13;;
60002;SDS011;46322;52.018;8.702;2022-08-01T15:32:29;6.67;;;4.03;;
60002;SDS011;46322;52.018;8.702;2022-08-01T15:37:29;6.50;;;4.07;;
60002;SDS011;46322;52.018;8.702;2022-08-01T15:42:29;8.03;;;4.40;;
60002;SDS011;46322;52.018;8.702;2022-08-01T15:47:29;6.47;;;4.00;;
60002;SDS011;46322;52.018;8.702;2022-08-01T15:52:30;6.75;;;3.85;;
60002;SDS011;46322;52.018;8.702;2022-08-01T15:57:30;6.18;;;3.58;;
60002;SDS011;46322;52.018;8.702;2022-08-01T16:02:31;6.20;;;3.60;;
60002;SDS011;46322;52.018;8.702;2022-08-01T16:07:31;7.75;;;4.18;;
60002;SDS011;46322;52.018;8.702;2022-08-01T16:12:31;6.93;;;3.83;;
60002;SDS011;46322;52.018;8.702;2022-08-01T16:17:32;7.93;;;4.03;;
60002;SDS011;46322;52.018;8.702;2022-08-01T16:22:32;6.27;;;4.00;;
60002;SDS011;46322;52.018;8.702;2022-08-01T16:27:32;6.37;;;3.80;;
60002;SDS011;46322;52.018;8.702;2022-08-01T16:32:33;8.57;;;3.45;;
60002;SDS011;46322;52.018;8.702;2022-08-01T16:37:33;6.18;;;3.20;;
60002;SDS011;46322;52.018;8.702;2022-08-01T16:42:34;6.97;;;3.17;;
60002;SDS011;46322;52.018;8.702;2022-08-01T16:47:34;6.32;;;3.50;;
60002;SDS011;46322;52.018;8.702;2022-08-01T16:52:35;7.57;;;3.23;;
60002;SDS011;46322;52.018;8.702;2022-08-01T16:57:35;9.00;;;3.27;;
60002;SDS011;46322;52.018;8.702;2022-08-01T17:02:36;7.33;;;3.23;;
60002;SDS011;46322;52.018;8.702;2022-08-01T17:07:38;7.88;;;3.42;;
60002;SDS011;46322;52.018;8.702;2022-08-01T17:12:39;8.13;;;3.17;;
60002;SDS011;46322;52.018;8.702;2022-08-01T17:17:41;7.32;;;3.17;;
60002;SDS011;46322;52.018;8.702;2022-08-01T17:22:41;7.43;;;3.20;;
60002;SDS011;46322;52.018;8.702;2022-08-01T17:27:42;8.17;;;3.00;;
60002;SDS011;46322;52.018;8.702;2022-08-01T17:32:42;6.53;;;3.47;;
60002;SDS011;46322;52.018;8.702;2022-08-01T17:37:43;6.40;;;2.90;;
60002;SDS011;46322;52.018;8.702;2022-08-01T17:42:44;6.25;;;2.92;;
60002;SDS011;46322;52.018;8.702;2022-08-01T17:47:44;6.97;;;2.75;;
60002;SDS011;46322;52.018;8.702;2022-08-01T17:52:44;7.65;;;3.03;;
60002;SDS011;46322;52.018;8.702;2022-08-01T17:57:44;6.45;;;2.85;;
60002;SDS011;46322;52.018;8.702;2022-08-01T18:02:45;7.00;;;2.87;;
60002;SDS011;46322;52.018;8.702;2022-08-01T18:07:45;5.82;;;2.70;;
60002;SDS011;46322;52.018;8.702;2022-08-01T18:12:45;7.13;;;3.00;;
60002;SDS011;46322;52.018;8.702;2022-08-01T18:17:45;6.00;;;3.00;;
60002;SDS011;46322;52.018;8.702;2022-08-01T18:22:46;6.00;;;2.90;;
60002;SDS011;46322;52.018;8.702;2022-08-01T18:27:46;7.70;;;2.67;;
60002;SDS011;46322;52.018;8.702;2022-08-01T18:32:46;11.65;;;3.30;;
60002;SDS011;46322;52.018;8.702;2022-08-01T18:37:48;5.93;;;2.88;;
60002;SDS011;46322;52.018;8.702;2022-08-01T18:42:49;7.18;;;2.80;;
60002;SDS011;46322;52.018;8.702;2022-08-01T18:47:49;4.67;;;2.40;;
60002;SDS011;46322;52.018;8.702;2022-08-01T18:52:49;4.80;;;2.40;;
60002;SDS011;46322;52.018;8.702;2022-08-01T18:57:50;6.20;;;2.78;;
60002;SDS011;46322;52.018;8.702;2022-08-01T19:02:50;6.40;;;2.75;;
60002;SDS011;46322;52.018;8.702;2022-08-01T19:07:50;6.25;;;2.50;;
60002;SDS011;46322;52.018;8.702;2022-08-01T19:12:50;5.07;;;2.70;;
60002;SDS011;46322;52.018;8.702;2022-08-01T19:17:51;5.40;;;2.90;;
60002;SDS011;46322;52.018;8.702;2022-08-01T19:22:51;6.63;;;2.78;;
60002;SDS011;46322;52.018;8.702;2022-08-01T19:27:51;11.52;;;3.17;;
60002;SDS011;46322;52.018;8.702;2022-08-01T19:32:55;5.85;;;3.20;;
60002;SDS011;46322;52.018;8.702;2022-08-01T19:37:55;7.40;;;3.10;;
60002;SDS011;46322;52.018;8.702;2022-08-01T19:42:56;6.80;;;3.38;;
60002;SDS011;46322;52.018;8.702;2022-08-01T19:47:58;8.73;;;3.67;;
60002;SDS011;46322;52.018;8.702;2022-08-01T19:53:00;9.43;;;3.30;;
60002;SDS011;46322;52.018;8.702;2022-08-01T19:58:01;6.30;;;3.10;;
60002;SDS011;46322;52.018;8.702;2022-08-01T20:03:02;6.33;;;2.53;;
60002;SDS011;46322;52.018;8.702;2022-08-01T20:08:04;6.43;;;2.90;;
60002;SDS011;46322;52.018;8.702;2022-08-01T20:13:05;8.10;;;3.10;;
60002;SDS011;46322;52.018;8.702;2022-08-01T20:18:07;7.40;;;3.00;;
60002;SDS011;46322;52.018;8.702;2022-08-01T20:23:08;7.80;;;2.75;;
60002;SDS011;46322;52.018;8.702;2022-08-01T20:28:10;8.90;;;3.13;;
60002;SDS011;46322;52.018;8.702;2022-08-01T20:33:11;8.87;;;2.87;;
60002;SDS011;46322;52.018;8.702;2022-08-01T20:38:13;6.47;;;3.10;;
60002;SDS011;46322;52.018;8.702;2022-08-01T20:43:19;10.70;;;3.20;;
60002;SDS011;46322;52.018;8.702;2022-08-01T20:48:20;6.17;;;3.27;;
60002;SDS011;46322;52.018;8.702;2022-08-01T20:53:24;6.50;;;3.80;;
60002;SDS011;46322;52.018;8.702;2022-08-01T20:58:49;6.13;;;3.23;;
60002;SDS011;46322;52.018;8.702;2022-08-01T21:03:56;7.05;;;3.60;;
60002;SDS011;46322;52.018;8.702;2022-08-01T21:09:04;6.90;;;3.63;;
60002;SDS011;46322;52.018;8.702;2022-08-01T21:14:06;8.73;;;4.03;;
60002;SDS011;46322;52.018;8.702;2022-08-01T21:19:27;7.97;;;3.80;;
60002;SDS011;46322;52.018;8.702;2022-08-01T21:24:35;8.80;;;4.40;;
60002;SDS011;46322;52.018;8.702;2022-08-01T21:30:01;8.52;;;3.92;;
60002;SDS011;46322;52.018;8.702;2022-08-01T21:35:06;7.65;;;4.32;;
60002;SDS011;46322;52.018;8.702;2022-08-01T21:40:07;10.63;;;4.07;;
60002;SDS011;46322;52.018;8.702;2022-08-01T21:45:08;9.90;;;4.00;;
60002;SDS011;46322;52.018;8.702;2022-08-01T21:50:09;7.30;;;4.03;;
60002;SDS011;46322;52.018;8.702;2022-08-01T21:55:31;7.30;;;4.07;;
60002;SDS011;46322;52.018;8.702;2022-08-01T22:00:36;9.93;;;4.00;;
60002;SDS011;46322;52.018;8.702;2022-08-01T22:05:39;6.45;;;3.85;;
60002;SDS011;46322;52.018;8.702;2022-08-01T22:10:42;6.93;;;3.93;;
60002;SDS011;46322;52.018;8.702;2022-08-01T22:15:42;7.43;;;4.10;;
60002;SDS011;46322;52.018;8.702;2022-08-01T22:20:43;9.30;;;4.27;;
60002;SDS011;46322;52.018;8.702;2022-08-01T22:25:46;7.10;;;3.72;;
60002;SDS011;46322;52.018;8.702;2022-08-01T22:30:50;6.57;;;4.20;;
60002;SDS011;46322;52.018;8.702;2022-08-01T22:35:51;6.90;;;4.03;;
60002;SDS011;46322;52.018;8.702;2022-08-01T22:40:52;9.10;;;4.20;;
60002;SDS011;46322;52.018;8.702;2022-08-01T22:46:06;9.15;;;3.92;;
60002;SDS011;46322;52.018;8.702;2022-08-01T22:51:15;7.70;;;4.20;;
60002;SDS011;46322;52.018;8.702;2022-08-01T22:56:31;8.68;;;4.05;;
60002;SDS011;46322;52.018;8.702;2022-08-01T23:01:34;11.63;;;4.43;;
60002;SDS011;46322;52.018;8.702;2022-08-01T23:06:42;8.47;;;3.87;;
60002;SDS011;46322;52.018;8.702;2022-08-01T23:11:46;10.47;;;4.03;;
60002;SDS011;46322;52.018;8.702;2022-08-01T23:16:47;12.68;;;4.70;;
60002;SDS011;46322;52.018;8.702;2022-08-01T23:21:49;9.37;;;4.10;;
60002;SDS011;46322;52.018;8.702;2022-08-01T23:26:50;9.57;;;4.05;;
60002;SDS011;46322;52.018;8.702;2022-08-01T23:31:50;11.43;;;4.10;;
60002;SDS011;46322;52.018;8.702;2022-08-01T23:36:51;9.13;;;4.40;;
60002;SDS011;46322;52.018;8.702;2022-08-01T23:41:51;9.50;;;4.47;;
60002;SDS011;46322;52.018;8.702;2022-08-01T23:46:52;10.97;;;4.67;;
60002;SDS011;46322;52.018;8.702;2022-08-01T23:51:53;11.82;;;4.85;;
60002;SDS011;46322;52.018;8.702;2022-08-01T23:56:56;11.43;;;4.93;;
